Terminal Aerodrome Forecast
Issued by NWS Tampa Bay Area, FL

Home | Current Version | Previous Version | Text Only | Print | Product List | Glossary On
Versions: 1 2 3 4 5 6 7 8 9 10 11 12 13 14 15 16 17
000
FTUS42 KTBW 230000 AAA
TAFFMY
TAF AMD
KFMY 230049Z 2301/2324 VRB06KT P6SM VCTS SCT015CB BKN035
     FM230300 VRB04KT P6SM VCSH SCT020 BKN040
     FM231200 VRB03KT P6SM VCSH SCT025 BKN080
     FM231500 VRB06KT P6SM VCTS SCT035CB BKN100=

USA.gov is the U.S. government's official web portal to all federal, state and local government web resources and services.